createdAt,value
2023-05-14T00:00:02.184Z,74.62
2023-05-14T00:02:30.257Z,74.38
2023-05-14T00:05:07.347Z,74.45
2023-05-14T00:07:35.615Z,74.78
2023-05-14T00:10:03.550Z,74.69
2023-05-14T00:12:31.637Z,74.79
2023-05-14T00:14:59.665Z,74.78
2023-05-14T00:17:27.611Z,74.81
2023-05-14T00:19:55.991Z,74.73
2023-05-14T00:22:23.852Z,74.69
2023-05-14T00:24:51.723Z,74.66
2023-05-14T00:27:19.458Z,74.80
2023-05-14T00:29:47.206Z,74.91
2023-05-14T00:32:15.560Z,74.82
2023-05-14T00:34:43.305Z,74.83
2023-05-14T00:37:11.282Z,75.17
2023-05-14T00:39:39.159Z,75.05
2023-05-14T00:42:07.027Z,75.42
2023-05-14T00:44:36.060Z,75.51
2023-05-14T00:47:05.342Z,75.46
2023-05-14T00:49:34.157Z,75.53
2023-05-14T00:52:02.309Z,75.61
2023-05-14T00:54:30.643Z,75.52
2023-05-14T00:57:07.463Z,75.80
2023-05-14T00:59:36.037Z,76.04
2023-05-14T01:02:03.986Z,75.77
2023-05-14T01:04:31.904Z,75.65
2023-05-14T01:07:36.767Z,75.72
2023-05-14T01:10:11.039Z,75.58
2023-05-14T01:12:57.341Z,75.61
2023-05-14T01:15:29.004Z,75.73
2023-05-14T01:18:02.516Z,75.69
2023-05-14T01:20:31.148Z,76.09
2023-05-14T01:22:59.033Z,76.11
2023-05-14T01:25:27.266Z,76.15
2023-05-14T01:28:17.991Z,76.52
2023-05-14T01:30:51.822Z,76.54
2023-05-14T01:33:21.830Z,76.77
2023-05-14T01:35:51.013Z,77.25
2023-05-14T01:38:20.216Z,76.80
2023-05-14T01:40:49.711Z,77.16
2023-05-14T01:43:19.237Z,77.25
2023-05-14T01:45:47.337Z,77.01
2023-05-14T01:48:15.470Z,76.94
2023-05-14T01:50:43.339Z,77.00
2023-05-14T01:53:14.263Z,77.64
2023-05-14T01:55:42.373Z,77.92
2023-05-14T01:58:11.248Z,78.17
2023-05-14T02:00:39.052Z,78.02
2023-05-14T02:03:07.271Z,77.82
2023-05-14T02:05:35.025Z,77.80
2023-05-14T02:08:02.889Z,77.67
2023-05-14T02:10:31.348Z,77.69
2023-05-14T02:12:59.665Z,77.87
2023-05-14T02:15:27.471Z,78.04
2023-05-14T02:17:55.242Z,77.92
2023-05-14T02:20:23.142Z,77.81
2023-05-14T02:22:51.522Z,77.70
2023-05-14T02:25:19.734Z,77.75
2023-05-14T02:27:49.525Z,77.82
2023-05-14T02:30:17.353Z,78.11
2023-05-14T02:32:46.362Z,78.51
2023-05-14T02:35:14.407Z,78.51
2023-05-14T02:37:42.198Z,79.09
2023-05-14T02:40:11.310Z,79.38
2023-05-14T02:42:40.089Z,79.30
2023-05-14T02:45:08.162Z,79.02
2023-05-14T02:47:37.992Z,78.77
2023-05-14T02:50:07.128Z,78.54
2023-05-14T02:52:35.966Z,78.74
2023-05-14T02:55:04.060Z,78.85
2023-05-14T02:57:32.498Z,78.95
2023-05-14T03:00:00.336Z,78.92
2023-05-14T03:02:29.126Z,78.59
2023-05-14T03:05:00.267Z,78.69
2023-05-14T03:07:28.676Z,78.64
2023-05-14T03:09:56.621Z,78.71
2023-05-14T03:12:24.578Z,78.88
2023-05-14T03:14:52.633Z,78.88
2023-05-14T03:17:20.432Z,78.62
2023-05-14T03:19:48.861Z,78.63
2023-05-14T03:22:16.878Z,78.74
2023-05-14T03:24:45.058Z,79.18
2023-05-14T03:27:15.611Z,79.13
2023-05-14T03:29:43.575Z,78.71
2023-05-14T03:32:11.457Z,78.44
2023-05-14T03:34:39.267Z,78.30
2023-05-14T03:37:07.476Z,77.81
2023-05-14T03:39:35.201Z,77.81
2023-05-14T03:42:03.027Z,78.19
2023-05-14T03:44:30.923Z,78.68
2023-05-14T03:47:06.088Z,79.20
2023-05-14T03:49:33.888Z,79.29
2023-05-14T03:52:02.031Z,79.34
2023-05-14T03:54:29.910Z,79.53
2023-05-14T03:56:57.830Z,79.71
2023-05-14T03:59:25.742Z,79.68
2023-05-14T04:01:54.163Z,80.10
2023-05-14T04:04:22.617Z,78.88
2023-05-14T04:06:50.562Z,78.30
2023-05-14T04:09:18.387Z,77.70
2023-05-14T04:11:46.411Z,77.36
2023-05-14T04:14:14.405Z,77.32
2023-05-14T04:16:42.898Z,78.04
2023-05-14T04:19:11.715Z,78.42
2023-05-14T04:21:39.918Z,78.61
2023-05-14T04:24:08.202Z,79.11
2023-05-14T04:26:36.011Z,79.84
2023-05-14T04:29:03.915Z,80.57
2023-05-14T04:31:34.184Z,80.84
2023-05-14T04:34:02.429Z,80.82
2023-05-14T04:36:30.204Z,80.39
2023-05-14T04:38:58.111Z,80.46
2023-05-14T04:41:26.332Z,79.78
2023-05-14T04:43:56.900Z,79.19
2023-05-14T04:46:25.078Z,78.97
2023-05-14T04:48:53.298Z,79.08
2023-05-14T04:51:21.497Z,80.06
2023-05-14T04:53:49.276Z,80.45
2023-05-14T04:56:17.074Z,78.45
2023-05-14T04:58:44.871Z,76.73
2023-05-14T05:01:13.602Z,76.33
2023-05-14T05:03:42.131Z,75.58
2023-05-14T05:06:12.451Z,74.66
2023-05-14T05:08:41.182Z,73.95
2023-05-14T05:11:08.902Z,74.05
2023-05-14T05:13:36.696Z,73.38
2023-05-14T05:16:05.367Z,73.16
2023-05-14T05:18:33.816Z,73.16
2023-05-14T05:21:01.833Z,72.93
2023-05-14T05:23:29.559Z,72.98
2023-05-14T05:25:57.307Z,72.64
2023-05-14T05:28:25.025Z,72.31
2023-05-14T05:30:53.164Z,72.02
2023-05-14T05:33:21.400Z,71.91
2023-05-14T05:35:50.227Z,71.67
2023-05-14T05:38:18.527Z,71.45
2023-05-14T05:40:48.941Z,71.46
2023-05-14T05:43:16.838Z,71.41
2023-05-14T05:45:46.136Z,71.14
2023-05-14T05:48:14.440Z,70.86
2023-05-14T05:50:44.937Z,70.97
2023-05-14T05:53:12.775Z,70.80
2023-05-14T05:55:41.110Z,70.81
2023-05-14T05:58:08.835Z,69.89
2023-05-14T06:00:36.997Z,70.36
2023-05-14T06:03:05.218Z,70.37
2023-05-14T06:05:33.607Z,70.13
2023-05-14T06:08:01.939Z,69.55
2023-05-14T06:10:30.171Z,69.59
2023-05-14T06:12:58.138Z,69.44
2023-05-14T06:15:26.059Z,69.22
2023-05-14T06:18:02.389Z,68.94
2023-05-14T06:20:30.224Z,69.02
2023-05-14T06:22:58.486Z,68.21
2023-05-14T06:25:26.200Z,67.86
2023-05-14T06:27:54.067Z,67.70
2023-05-14T06:30:22.651Z,67.60
2023-05-14T06:32:51.967Z,67.55
2023-05-14T06:35:20.001Z,67.31
2023-05-14T06:37:47.762Z,67.40
2023-05-14T06:40:15.937Z,67.37
2023-05-14T06:42:44.148Z,66.82
2023-05-14T06:45:21.720Z,67.18
2023-05-14T06:47:50.158Z,66.73
2023-05-14T06:50:18.110Z,66.67
2023-05-14T06:52:51.190Z,66.23
2023-05-14T06:55:19.609Z,66.34
2023-05-14T06:57:47.356Z,66.82
2023-05-14T07:00:16.698Z,66.86
2023-05-14T07:02:46.981Z,66.58
2023-05-14T07:05:15.171Z,66.46
2023-05-14T07:07:42.900Z,66.05
2023-05-14T07:10:11.398Z,66.13
2023-05-14T07:12:39.636Z,64.82
2023-05-14T07:15:08.246Z,64.55
2023-05-14T07:17:36.298Z,65.46
2023-05-14T07:20:04.681Z,65.21
2023-05-14T07:22:32.408Z,65.35
2023-05-14T07:25:00.677Z,65.30
2023-05-14T07:27:28.993Z,65.44
2023-05-14T07:29:56.705Z,65.14
2023-05-14T07:32:25.509Z,65.15
2023-05-14T07:34:53.373Z,65.01
2023-05-14T07:37:24.004Z,64.06
2023-05-14T07:39:53.381Z,63.34
2023-05-14T07:42:34.438Z,64.02
2023-05-14T07:45:05.028Z,64.04
2023-05-14T07:47:33.092Z,63.07
2023-05-14T07:50:01.010Z,62.75
2023-05-14T07:52:30.067Z,62.60
2023-05-14T07:54:57.827Z,63.18
2023-05-14T07:57:26.465Z,62.83
2023-05-14T07:59:54.974Z,63.10
2023-05-14T08:02:22.814Z,61.95
2023-05-14T08:04:51.103Z,61.97
2023-05-14T08:07:19.692Z,61.71
2023-05-14T08:09:47.474Z,61.46
2023-05-14T08:12:16.128Z,61.25
2023-05-14T08:14:44.346Z,61.11
2023-05-14T08:17:12.464Z,60.89
2023-05-14T08:19:41.081Z,61.02
2023-05-14T08:22:09.068Z,61.12
2023-05-14T08:24:36.879Z,61.20
2023-05-14T08:27:05.374Z,60.89
2023-05-14T08:29:33.233Z,58.92
2023-05-14T08:32:08.434Z,60.05
2023-05-14T08:34:39.902Z,60.43
2023-05-14T08:37:07.622Z,59.50
2023-05-14T08:39:36.038Z,58.71
2023-05-14T08:42:08.183Z,59.80
2023-05-14T08:44:45.862Z,59.86
2023-05-14T08:47:18.108Z,59.42
2023-05-14T08:49:58.838Z,58.92
2023-05-14T08:52:27.352Z,58.51
2023-05-14T08:54:57.036Z,58.25
2023-05-14T08:57:26.723Z,58.09
2023-05-14T08:59:54.992Z,57.66
2023-05-14T09:02:29.734Z,57.84
2023-05-14T09:05:00.205Z,58.05
2023-05-14T09:07:28.878Z,56.72
2023-05-14T09:09:56.676Z,56.57
2023-05-14T09:12:24.487Z,56.66
2023-05-14T09:14:52.333Z,56.31
2023-05-14T09:17:20.778Z,55.53
2023-05-14T09:19:49.450Z,56.16
2023-05-14T09:22:18.870Z,55.34
2023-05-14T09:24:46.750Z,54.88
2023-05-14T09:27:21.703Z,55.00
2023-05-14T09:29:49.419Z,54.86
2023-05-14T09:32:17.457Z,55.15
2023-05-14T09:34:45.854Z,54.47
2023-05-14T09:37:14.161Z,54.46
2023-05-14T09:39:41.956Z,54.72
2023-05-14T09:42:09.857Z,54.55
2023-05-14T09:44:38.228Z,53.95
2023-05-14T09:47:09.236Z,54.39
2023-05-14T09:49:37.464Z,54.54
2023-05-14T09:52:07.209Z,54.17
2023-05-14T09:54:35.957Z,54.20
2023-05-14T09:57:03.734Z,53.19
2023-05-14T09:59:31.469Z,53.64
2023-05-14T10:02:34.027Z,52.61
2023-05-14T10:05:23.900Z,53.43
2023-05-14T10:07:53.771Z,53.24
2023-05-14T10:10:24.940Z,53.10
2023-05-14T10:13:06.111Z,52.63
2023-05-14T10:15:41.826Z,51.72
2023-05-14T10:18:23.258Z,52.03
2023-05-14T10:21:02.820Z,52.09
2023-05-14T10:23:31.266Z,51.17
2023-05-14T10:26:01.101Z,51.51
2023-05-14T10:28:28.990Z,51.63
2023-05-14T10:30:56.820Z,51.04
2023-05-14T10:33:24.560Z,51.70
2023-05-14T10:36:08.044Z,50.82
2023-05-14T10:38:37.412Z,49.31
2023-05-14T10:41:07.617Z,50.55
2023-05-14T10:43:40.529Z,50.81
2023-05-14T10:46:11.433Z,50.74
2023-05-14T10:48:43.079Z,50.98
2023-05-14T10:51:11.949Z,50.88
2023-05-14T10:53:42.402Z,50.85
2023-05-14T10:56:15.023Z,50.82
2023-05-14T10:58:45.856Z,50.29
2023-05-14T11:01:14.364Z,49.23
2023-05-14T11:03:46.523Z,50.23
2023-05-14T11:06:16.128Z,49.84
2023-05-14T11:08:46.630Z,50.79
2023-05-14T11:11:15.546Z,50.73
2023-05-14T11:13:44.840Z,50.29
2023-05-14T11:16:22.915Z,50.41
2023-05-14T11:19:04.022Z,50.45
2023-05-14T11:21:35.212Z,50.12
2023-05-14T11:24:05.498Z,50.39
2023-05-14T11:26:34.323Z,49.26
2023-05-14T11:29:02.711Z,49.23
2023-05-14T11:31:31.227Z,49.28
2023-05-14T11:34:00.170Z,48.49
2023-05-14T11:36:27.942Z,49.14
2023-05-14T11:38:55.759Z,49.06
2023-05-14T11:41:23.653Z,49.33
2023-05-14T11:43:52.100Z,47.88
2023-05-14T11:46:20.799Z,48.45
2023-05-14T11:48:48.651Z,48.61
2023-05-14T11:51:16.556Z,48.33
2023-05-14T11:53:45.673Z,47.64
2023-05-14T11:56:14.091Z,46.60
2023-05-14T11:58:48.687Z,47.47
2023-05-14T12:01:16.487Z,47.56
2023-05-14T12:03:44.481Z,47.03
2023-05-14T12:06:12.431Z,47.79
2023-05-14T12:08:40.927Z,47.27
2023-05-14T12:11:09.571Z,47.04
2023-05-14T12:13:37.389Z,46.91
2023-05-14T12:16:05.501Z,47.23
2023-05-14T17:37:23.313Z,44.48
2023-05-14T17:39:52.417Z,44.62
2023-05-14T17:42:20.278Z,44.63
2023-05-14T17:44:48.131Z,44.62
2023-05-14T17:47:15.969Z,44.78
2023-05-14T17:49:44.150Z,44.92
2023-05-14T17:52:12.399Z,44.96
2023-05-14T17:54:40.133Z,45.04
2023-05-14T17:57:08.024Z,45.15
2023-05-14T17:59:36.384Z,45.26
2023-05-14T18:02:07.620Z,45.46
2023-05-14T18:04:36.118Z,45.63
2023-05-14T18:07:05.080Z,45.74
2023-05-14T18:09:32.876Z,45.89
2023-05-14T18:12:01.115Z,46.09
2023-05-14T18:14:28.949Z,46.36
2023-05-14T18:16:56.946Z,46.48
2023-05-14T18:19:25.292Z,46.73
2023-05-14T18:21:55.596Z,46.88
2023-05-14T18:24:23.508Z,47.13
2023-05-14T18:26:51.338Z,47.33
2023-05-14T18:29:19.143Z,47.32
2023-05-14T18:31:47.023Z,47.47
2023-05-14T18:34:15.253Z,47.58
2023-05-14T18:36:43.373Z,47.76
2023-05-14T18:39:11.430Z,47.96
2023-05-14T18:41:39.169Z,48.25
2023-05-14T18:44:06.979Z,48.26
2023-05-14T18:46:35.034Z,48.54
2023-05-14T18:49:03.446Z,48.58
2023-05-14T18:51:31.426Z,48.71
2023-05-14T18:53:59.367Z,48.80
2023-05-14T18:56:27.484Z,48.93
2023-05-14T18:58:55.347Z,49.19
2023-05-14T19:01:25.589Z,49.22
2023-05-14T19:03:54.218Z,49.40
2023-05-14T19:06:22.363Z,49.73
2023-05-14T19:08:50.427Z,49.91
2023-05-14T19:11:18.267Z,50.08
2023-05-14T19:13:46.924Z,50.21
2023-05-14T19:16:15.611Z,50.62
2023-05-14T19:18:43.890Z,50.69
2023-05-14T19:21:11.798Z,51.03
2023-05-14T19:23:39.702Z,51.19
2023-05-14T19:26:07.582Z,51.45
2023-05-14T19:28:38.279Z,51.71
2023-05-14T19:31:06.638Z,51.86
2023-05-14T19:33:34.426Z,52.13
2023-05-14T19:36:02.185Z,52.18
2023-05-14T19:38:30.574Z,52.52
2023-05-14T19:40:58.388Z,52.44
2023-05-14T19:43:26.407Z,53.20
2023-05-14T19:45:54.836Z,53.80
2023-05-14T19:48:22.736Z,53.84
2023-05-14T19:50:50.979Z,54.30
2023-05-14T19:53:18.718Z,54.09
2023-05-14T19:55:46.515Z,53.86
2023-05-14T19:58:14.316Z,53.72
2023-05-14T20:00:42.806Z,53.62
2023-05-14T20:03:10.935Z,53.51
2023-05-14T20:05:38.940Z,53.54
2023-05-14T20:08:08.211Z,53.45
2023-05-14T20:10:36.002Z,53.74
2023-05-14T20:13:04.028Z,53.97
2023-05-14T20:15:32.232Z,54.30
2023-05-14T20:18:13.992Z,54.44
2023-05-14T20:20:42.901Z,54.70
2023-05-14T20:23:10.750Z,54.72
2023-05-14T20:25:39.346Z,54.78
2023-05-14T20:28:07.083Z,54.75
2023-05-14T20:30:34.860Z,54.67
2023-05-14T20:33:02.790Z,55.15
2023-05-14T20:35:30.647Z,55.08
2023-05-14T20:37:59.002Z,55.16
2023-05-14T20:40:26.858Z,55.23
2023-05-14T20:42:54.741Z,55.86
2023-05-14T20:45:22.493Z,56.17
2023-05-14T20:47:51.015Z,56.36
2023-05-14T20:50:19.463Z,56.62
2023-05-14T20:52:47.192Z,57.44
2023-05-14T20:55:15.272Z,57.16
2023-05-14T20:57:43.598Z,57.38
2023-05-14T21:00:12.539Z,58.18
2023-05-14T21:02:40.881Z,60.54
2023-05-14T21:05:09.477Z,61.58
2023-05-14T21:07:37.508Z,60.73
2023-05-14T21:10:06.024Z,61.69
2023-05-14T21:12:33.762Z,62.29
2023-05-14T21:15:01.613Z,62.27
2023-05-14T21:17:30.090Z,63.18
2023-05-14T21:19:58.436Z,64.94
2023-05-14T21:22:27.465Z,65.93
2023-05-14T21:24:56.216Z,65.91
2023-05-14T21:27:24.019Z,67.95
2023-05-14T21:29:51.781Z,68.18
2023-05-14T21:32:22.309Z,68.25
2023-05-14T21:34:50.684Z,69.15
2023-05-14T21:37:18.641Z,69.42
2023-05-14T21:39:46.520Z,69.32
2023-05-14T21:42:32.981Z,69.52
2023-05-14T21:45:01.502Z,69.90
2023-05-14T21:47:29.766Z,69.99
2023-05-14T21:49:57.609Z,70.34
2023-05-14T21:52:26.225Z,70.40
2023-05-14T21:54:53.923Z,71.13
2023-05-14T21:57:22.862Z,71.73
2023-05-14T21:59:50.645Z,72.27
2023-05-14T22:02:18.942Z,72.29
2023-05-14T22:04:47.072Z,73.24
2023-05-14T22:07:14.936Z,74.44
2023-05-14T22:09:42.810Z,73.13
2023-05-14T22:12:10.592Z,74.27
2023-05-14T22:14:38.873Z,73.57
2023-05-14T22:17:07.216Z,73.05
2023-05-14T22:19:35.012Z,73.73
2023-05-14T22:22:02.743Z,73.39
2023-05-14T22:24:30.572Z,73.02
2023-05-14T22:26:58.564Z,73.51
2023-05-14T22:29:26.896Z,73.31
2023-05-14T22:31:54.706Z,73.69
2023-05-14T22:34:22.682Z,74.16
2023-05-14T22:36:50.518Z,74.30
2023-05-14T22:39:18.584Z,74.54
2023-05-14T22:41:46.452Z,76.65
2023-05-14T22:44:14.977Z,77.07
2023-05-14T22:46:42.804Z,76.01
2023-05-14T22:49:10.708Z,75.49
2023-05-14T22:51:38.877Z,74.81
2023-05-14T22:54:06.809Z,75.15
2023-05-14T22:56:35.578Z,74.99
2023-05-14T22:59:04.322Z,75.30
2023-05-14T23:01:32.729Z,76.17
2023-05-14T23:04:00.781Z,76.77
2023-05-14T23:06:30.242Z,76.94
2023-05-14T23:08:58.327Z,76.56
2023-05-14T23:11:27.325Z,77.02
2023-05-14T23:13:55.939Z,77.21
2023-05-14T23:16:24.706Z,76.38
2023-05-14T23:18:52.966Z,76.44
2023-05-14T23:21:20.846Z,76.28
2023-05-14T23:23:48.742Z,76.22
2023-05-14T23:26:16.580Z,76.29
2023-05-14T23:28:44.822Z,77.58
2023-05-14T23:31:12.986Z,78.77
2023-05-14T23:33:40.859Z,79.24
2023-05-14T23:36:09.036Z,78.49
2023-05-14T23:38:37.179Z,78.50
2023-05-14T23:41:05.054Z,78.05
2023-05-14T23:43:33.921Z,77.24
2023-05-14T23:46:02.642Z,77.16
2023-05-14T23:48:30.929Z,76.93
2023-05-14T23:50:58.723Z,76.44
2023-05-14T23:53:26.571Z,76.19
2023-05-14T23:55:54.342Z,76.22
2023-05-14T23:58:22.774Z,76.04
